createdAt,value
2022-11-14T00:04:46.730Z,5.30
2022-11-14T00:15:02.426Z,5.30
2022-11-14T00:25:18.365Z,5.70
2022-11-14T00:35:34.292Z,5.60
2022-11-14T00:45:50.149Z,5.70
2022-11-14T00:56:05.785Z,5.70
2022-11-14T01:06:21.346Z,5.80
2022-11-14T01:16:36.752Z,5.80
2022-11-14T01:26:58.137Z,5.90
2022-11-14T01:37:13.778Z,5.80
2022-11-14T01:47:33.649Z,5.60
2022-11-14T01:57:50.216Z,5.70
2022-11-14T02:08:06.278Z,5.90
2022-11-14T02:18:21.601Z,5.80
2022-11-14T02:28:37.512Z,5.50
2022-11-14T02:38:52.866Z,5.50
2022-11-14T02:49:08.243Z,5.70
2022-11-14T08:36:11.699Z,6.70
2022-11-14T08:46:27.208Z,7.40
2022-11-14T08:56:43.127Z,7.50
2022-11-14T09:06:59.299Z,7.70
2022-11-14T09:17:15.205Z,8.00
2022-11-14T09:27:31.174Z,8.60
2022-11-14T09:37:47.067Z,8.20
2022-11-14T09:48:12.912Z,8.30
2022-11-14T09:58:29.475Z,8.40
2022-11-14T10:09:14.432Z,8.40
2022-11-14T10:19:46.988Z,8.30
2022-11-14T10:30:19.680Z,8.50
2022-11-14T10:40:48.149Z,8.80
2022-11-14T10:51:27.554Z,8.80
2022-11-14T11:01:58.825Z,8.70
2022-11-14T11:12:20.879Z,9.00
2022-11-14T11:22:38.779Z,9.30
2022-11-14T11:32:54.437Z,9.60
2022-11-14T11:43:42.883Z,9.90
2022-11-14T11:54:07.412Z,10.40
2022-11-14T12:04:23.044Z,10.60
2022-11-14T12:14:47.957Z,10.40
2022-11-14T12:25:38.590Z,10.30
2022-11-14T12:35:58.663Z,10.20
2022-11-14T12:46:14.639Z,10.00
2022-11-14T12:56:33.381Z,10.00
2022-11-14T13:06:55.271Z,10.00
2022-11-14T13:17:35.696Z,10.00
2022-11-14T13:28:18.862Z,10.20
2022-11-14T13:39:05.397Z,10.30
2022-11-14T13:49:30.217Z,10.20
2022-11-14T13:59:55.011Z,10.10
2022-11-14T14:10:41.525Z,10.30
2022-11-14T14:21:22.443Z,10.40
2022-11-14T14:31:41.446Z,10.40
2022-11-14T14:41:58.818Z,10.20
2022-11-14T14:52:37.107Z,10.20
2022-11-14T15:02:54.977Z,10.10
2022-11-14T15:13:17.764Z,10.00
